createdAt,value
2019-02-08T00:00:22.929Z,16.50
2019-02-08T00:03:04.161Z,16.50
2019-02-08T00:05:45.787Z,16.50
2019-02-08T00:08:26.547Z,16.50
2019-02-08T00:11:07.582Z,16.50
2019-02-08T00:13:48.433Z,16.50
2019-02-08T00:16:29.141Z,16.50
2019-02-08T00:19:10.477Z,16.50
2019-02-08T00:21:51.510Z,16.50
2019-02-08T00:24:32.546Z,16.50
2019-02-08T00:27:13.448Z,16.50
2019-02-08T00:29:54.433Z,16.50
2019-02-08T00:32:35.258Z,16.50
2019-02-08T00:35:16.181Z,16.60
2019-02-08T00:37:56.802Z,16.60
2019-02-08T00:40:37.632Z,16.70
2019-02-08T00:43:18.593Z,16.70
2019-02-08T00:45:59.351Z,16.80
2019-02-08T00:48:40.323Z,16.90
2019-02-08T00:51:22.909Z,17.00
2019-02-08T00:54:04.179Z,17.10
2019-02-08T00:56:45.053Z,17.10
2019-02-08T00:59:26.059Z,17.00
2019-02-08T01:02:07.229Z,17.00
2019-02-08T01:04:48.120Z,17.00
2019-02-08T01:07:29.395Z,16.90
2019-02-08T01:10:10.563Z,16.80
2019-02-08T01:12:51.748Z,16.80
2019-02-08T01:15:32.524Z,16.70
2019-02-08T01:18:13.452Z,16.70
2019-02-08T01:20:54.814Z,16.70
2019-02-08T01:23:41.113Z,16.60
2019-02-08T01:26:18.167Z,16.60
2019-02-08T01:28:58.951Z,16.60
2019-02-08T01:31:40.061Z,16.60
2019-02-08T01:34:22.944Z,16.60
2019-02-08T01:37:03.951Z,16.50
2019-02-08T01:39:44.911Z,16.50
2019-02-08T01:42:25.877Z,16.50
2019-02-08T01:45:06.888Z,16.50
2019-02-08T01:47:47.893Z,16.50
2019-02-08T01:50:28.858Z,16.50
2019-02-08T01:53:09.589Z,16.60
2019-02-08T01:55:50.507Z,16.60
2019-02-08T01:58:31.419Z,16.60
2019-02-08T02:01:12.175Z,16.60
2019-02-08T02:03:53.351Z,16.60
2019-02-08T02:06:34.075Z,16.60
2019-02-08T02:09:14.975Z,16.60
2019-02-08T02:11:56.130Z,16.50
2019-02-08T02:14:37.129Z,16.50
2019-02-08T02:17:17.883Z,16.50
2019-02-08T02:19:58.870Z,16.50
2019-02-08T02:22:39.744Z,16.50
2019-02-08T02:25:20.483Z,16.50
2019-02-08T02:28:01.426Z,16.50
2019-02-08T02:30:42.055Z,16.50
2019-02-08T02:33:23.062Z,16.50
2019-02-08T02:36:04.245Z,16.50
2019-02-08T02:38:45.187Z,16.40
2019-02-08T02:41:26.278Z,16.40
2019-02-08T02:44:07.462Z,16.40
2019-02-08T02:46:48.044Z,16.40
2019-02-08T02:49:28.918Z,16.40
2019-02-08T02:52:09.961Z,16.40
2019-02-08T02:54:51.258Z,16.40
2019-02-08T02:57:32.553Z,16.50
2019-02-08T03:00:13.542Z,16.50
2019-02-08T03:02:54.547Z,16.50
2019-02-08T03:05:35.378Z,16.50
2019-02-08T03:08:16.490Z,16.50
2019-02-08T03:10:57.411Z,16.50
2019-02-08T03:13:38.335Z,16.50
2019-02-08T03:16:19.532Z,16.50
2019-02-08T03:19:00.445Z,16.50
2019-02-08T03:21:41.163Z,16.50
2019-02-08T03:24:21.509Z,16.50
2019-02-08T03:27:02.411Z,16.50
2019-02-08T03:29:43.393Z,16.40
2019-02-08T03:32:24.339Z,16.40
2019-02-08T03:35:05.725Z,16.40
2019-02-08T03:37:46.421Z,16.40
2019-02-08T03:40:27.347Z,16.40
2019-02-08T03:43:08.545Z,16.40
2019-02-08T03:45:51.263Z,16.40
2019-02-08T03:48:30.407Z,16.40
2019-02-08T03:51:18.457Z,16.40
2019-02-08T03:53:59.519Z,16.40
2019-02-08T03:56:39.856Z,16.40
2019-02-08T03:59:20.463Z,16.40
2019-02-08T04:02:00.885Z,16.40
2019-02-08T04:04:39.965Z,16.40
2019-02-08T04:07:28.038Z,16.40
2019-02-08T04:10:16.137Z,16.50
2019-02-08T04:13:04.339Z,16.50
2019-02-08T04:15:52.538Z,16.50
2019-02-08T04:18:40.572Z,16.50
2019-02-08T04:21:47.606Z,16.50
2019-02-08T04:24:35.717Z,16.40
2019-02-08T04:27:23.733Z,16.40
2019-02-08T04:30:13.787Z,16.40
2019-02-08T04:33:01.885Z,16.40
2019-02-08T04:35:49.957Z,16.40
2019-02-08T04:38:38.068Z,16.40
2019-02-08T04:41:26.089Z,16.40
2019-02-08T04:44:14.115Z,16.40
2019-02-08T04:47:02.226Z,16.40
2019-02-08T04:49:50.255Z,16.40
2019-02-08T04:52:38.273Z,16.50
2019-02-08T04:55:19.052Z,16.50
2019-02-08T04:58:00.094Z,16.50
2019-02-08T05:00:40.917Z,16.50
2019-02-08T05:03:21.648Z,16.50
2019-02-08T05:06:02.889Z,16.50
2019-02-08T05:08:43.795Z,16.50
2019-02-08T05:11:24.538Z,16.50
2019-02-08T05:14:05.360Z,16.50
2019-02-08T05:16:46.438Z,16.50
2019-02-08T05:19:27.260Z,16.50
2019-02-08T05:22:08.450Z,16.50
2019-02-08T05:24:49.313Z,16.40
2019-02-08T05:27:30.292Z,16.50
2019-02-08T05:30:10.730Z,16.40
2019-02-08T05:32:51.758Z,16.40
2019-02-08T05:35:32.848Z,16.40
2019-02-08T05:38:13.586Z,16.50
2019-02-08T05:40:54.471Z,16.50
2019-02-08T05:43:35.594Z,16.50
2019-02-08T05:46:16.233Z,16.50
2019-02-08T05:48:57.130Z,16.50
2019-02-08T05:51:38.026Z,16.50
2019-02-08T05:54:18.898Z,16.50
2019-02-08T05:56:59.999Z,16.50
2019-02-08T05:59:41.114Z,16.50
2019-02-08T06:02:21.916Z,16.50
2019-02-08T06:05:02.580Z,16.50
2019-02-08T06:07:43.721Z,16.50
2019-02-08T06:10:26.277Z,16.40
2019-02-08T06:13:07.254Z,16.40
2019-02-08T06:15:48.133Z,16.40
2019-02-08T06:18:29.036Z,16.40
2019-02-08T06:21:10.232Z,16.40
2019-02-08T06:23:50.911Z,16.50
2019-02-08T06:26:32.084Z,16.50
2019-02-08T06:29:12.903Z,16.50
2019-02-08T06:31:53.740Z,16.50
2019-02-08T06:34:34.832Z,16.50
2019-02-08T06:37:15.727Z,16.50
2019-02-08T06:39:56.702Z,16.50
2019-02-08T06:42:37.551Z,16.50
2019-02-08T06:45:18.583Z,16.50
2019-02-08T06:47:59.218Z,16.50
2019-02-08T06:50:39.853Z,16.50
2019-02-08T06:53:20.586Z,16.50
2019-02-08T06:56:01.496Z,16.50
2019-02-08T06:58:49.027Z,16.50
2019-02-08T07:01:37.554Z,16.50
2019-02-08T07:04:39.344Z,16.50
2019-02-08T07:07:39.472Z,16.50
2019-02-08T07:10:31.032Z,16.50
2019-02-08T07:13:19.200Z,16.50
2019-02-08T07:16:19.388Z,16.50
2019-02-08T07:19:06.982Z,16.50
2019-02-08T07:21:59.330Z,16.50
2019-02-08T07:24:56.961Z,16.50
2019-02-08T07:27:43.292Z,16.50
2019-02-08T07:30:43.595Z,16.50
2019-02-08T07:33:43.094Z,16.50
2019-02-08T07:36:42.514Z,16.50
2019-02-08T07:39:45.886Z,16.50
2019-02-08T07:42:45.312Z,16.40
2019-02-08T07:45:32.643Z,16.40
2019-02-08T07:48:20.632Z,16.40
2019-02-08T07:51:11.024Z,16.40
2019-02-08T07:54:10.948Z,16.40
2019-02-08T07:57:16.378Z,16.50
2019-02-08T08:00:16.335Z,16.50
2019-02-08T08:03:15.995Z,16.50
2019-02-08T08:06:15.719Z,16.50
2019-02-08T08:09:15.501Z,16.50
2019-02-08T08:12:09.633Z,16.50
2019-02-08T08:14:59.481Z,16.50
2019-02-08T08:17:59.275Z,16.50
2019-02-08T08:20:50.277Z,16.50
2019-02-08T08:23:46.438Z,16.50
2019-02-08T08:26:48.981Z,16.50
2019-02-08T08:29:48.503Z,16.50
2019-02-08T08:32:49.315Z,16.50
2019-02-08T08:35:56.607Z,16.50
2019-02-08T08:38:50.101Z,16.50
2019-02-08T08:41:57.360Z,16.50
2019-02-08T08:45:04.671Z,16.50
2019-02-08T08:48:11.953Z,16.50
2019-02-08T08:51:19.253Z,16.50
2019-02-08T08:54:26.569Z,16.50
2019-02-08T08:57:33.855Z,16.50
2019-02-08T09:00:41.367Z,16.50
2019-02-08T09:03:48.637Z,16.50
2019-02-08T09:06:55.932Z,16.50
2019-02-08T09:09:50.379Z,16.50
2019-02-08T09:12:57.677Z,16.50
2019-02-08T09:16:04.945Z,16.50
2019-02-08T09:19:12.291Z,16.50
2019-02-08T09:22:12.750Z,16.50
2019-02-08T09:25:20.035Z,16.50
2019-02-08T09:28:27.317Z,16.50
2019-02-08T09:31:21.357Z,16.50
2019-02-08T09:34:28.647Z,16.50
2019-02-08T09:37:26.641Z,16.50
2019-02-08T09:40:33.913Z,16.50
2019-02-08T09:43:41.257Z,16.50
2019-02-08T09:46:48.535Z,16.50
2019-02-08T09:49:55.803Z,16.50
2019-02-08T09:52:50.451Z,16.50
2019-02-08T09:55:30.889Z,16.50
2019-02-08T09:58:11.532Z,16.50
2019-02-08T10:00:52.584Z,16.50
2019-02-08T10:03:33.508Z,16.50
2019-02-08T10:06:14.449Z,16.50
2019-02-08T10:08:55.510Z,16.50
2019-02-08T10:11:36.403Z,16.50
2019-02-08T10:14:17.302Z,16.50
2019-02-08T10:16:57.949Z,16.50
2019-02-08T10:19:38.757Z,16.50
2019-02-08T10:22:19.669Z,16.60
2019-02-08T10:25:00.689Z,16.50
2019-02-08T10:27:41.440Z,16.50
2019-02-08T10:30:22.485Z,16.50
2019-02-08T10:33:03.328Z,16.50
2019-02-08T10:35:44.228Z,16.50
2019-02-08T10:38:24.865Z,16.50
2019-02-08T10:41:06.053Z,16.50
2019-02-08T10:43:46.995Z,16.50
2019-02-08T10:46:27.692Z,16.50
2019-02-08T10:49:08.803Z,16.50
2019-02-08T10:51:49.714Z,16.50
2019-02-08T10:54:30.443Z,16.50
2019-02-08T10:57:11.426Z,16.50
2019-02-08T10:59:51.910Z,16.50
2019-02-08T11:02:32.439Z,16.50
2019-02-08T11:05:13.293Z,16.50
2019-02-08T11:07:53.845Z,16.50
2019-02-08T11:10:34.725Z,16.50
2019-02-08T11:13:15.668Z,16.50
2019-02-08T11:15:56.876Z,16.50
2019-02-08T11:18:37.631Z,16.50
2019-02-08T11:21:18.081Z,16.50
2019-02-08T11:23:58.694Z,16.50
2019-02-08T11:26:39.949Z,16.50
2019-02-08T11:29:21.228Z,16.50
2019-02-08T11:32:02.388Z,16.50
2019-02-08T11:34:43.378Z,16.50
2019-02-08T11:37:24.060Z,16.50
2019-02-08T11:40:05.328Z,16.50
2019-02-08T11:42:46.364Z,16.50
2019-02-08T11:45:27.467Z,16.50
2019-02-08T11:48:08.314Z,16.50
2019-02-08T11:50:49.078Z,16.50
2019-02-08T11:53:29.942Z,16.60
2019-02-08T11:56:11.250Z,16.50
2019-02-08T11:58:52.011Z,16.60
2019-02-08T12:01:37.653Z,16.60
2019-02-08T12:04:18.074Z,16.50
2019-02-08T12:06:58.522Z,16.50
2019-02-08T12:09:39.100Z,16.50
2019-02-08T12:12:20.150Z,16.50
2019-02-08T12:15:01.099Z,16.50
2019-02-08T12:17:42.254Z,16.50
2019-02-08T12:20:22.920Z,16.50
2019-02-08T12:23:05.680Z,16.50
2019-02-08T12:25:46.766Z,16.50
2019-02-08T12:28:27.692Z,16.50
2019-02-08T12:31:08.580Z,16.50
2019-02-08T12:33:49.939Z,16.50
2019-02-08T12:36:31.085Z,16.50
2019-02-08T12:39:12.161Z,16.50
2019-02-08T12:41:53.486Z,16.50
2019-02-08T12:44:33.888Z,16.50
2019-02-08T12:47:14.630Z,16.50
2019-02-08T12:49:55.268Z,16.50
2019-02-08T12:52:36.329Z,16.50
2019-02-08T12:55:17.374Z,16.50
2019-02-08T12:57:58.383Z,16.50
2019-02-08T13:00:39.270Z,16.50
2019-02-08T13:03:19.702Z,16.50
2019-02-08T13:06:00.902Z,16.50
2019-02-08T13:08:41.802Z,16.50
2019-02-08T13:11:22.798Z,16.50
2019-02-08T13:14:03.488Z,16.50
2019-02-08T13:16:44.352Z,16.50
2019-02-08T13:19:25.142Z,16.50
2019-02-08T13:22:06.046Z,16.50
2019-02-08T13:24:47.022Z,16.60
2019-02-08T13:27:28.358Z,16.60
2019-02-08T13:30:09.100Z,16.60
2019-02-08T13:32:50.040Z,16.60
2019-02-08T13:35:31.263Z,16.50
2019-02-08T13:38:12.702Z,16.50
2019-02-08T13:40:53.987Z,16.50
2019-02-08T13:43:34.979Z,16.50
2019-02-08T13:46:16.342Z,16.50
2019-02-08T13:48:56.952Z,16.50
2019-02-08T13:51:38.047Z,16.50
2019-02-08T13:54:19.310Z,16.50
2019-02-08T13:57:00.859Z,16.50
2019-02-08T13:59:42.304Z,16.50
2019-02-08T14:02:23.674Z,16.50
2019-02-08T14:05:04.920Z,16.50
2019-02-08T14:07:45.791Z,16.50
2019-02-08T14:10:27.008Z,16.50
2019-02-08T14:13:08.293Z,16.50
2019-02-08T14:15:49.178Z,16.50
2019-02-08T14:18:29.758Z,16.50
2019-02-08T14:21:10.763Z,16.50
2019-02-08T14:23:51.981Z,16.50
2019-02-08T14:26:32.496Z,16.50
2019-02-08T14:29:15.515Z,16.60
2019-02-08T14:31:58.601Z,16.60
2019-02-08T14:34:43.747Z,16.60
2019-02-08T14:37:21.855Z,16.60
2019-02-08T14:40:02.672Z,16.60
2019-02-08T14:42:43.903Z,16.60
2019-02-08T14:45:24.627Z,16.60
2019-02-08T14:48:05.530Z,16.60
2019-02-08T14:50:34.439Z,16.60
2019-02-08T14:53:22.754Z,16.60
2019-02-08T14:56:11.411Z,16.50
2019-02-08T14:58:59.443Z,16.50
2019-02-08T15:01:47.647Z,16.50
2019-02-08T15:04:35.877Z,16.50
2019-02-08T15:07:24.011Z,16.50
2019-02-08T15:10:13.775Z,16.50
2019-02-08T15:13:01.982Z,16.50
2019-02-08T15:15:50.079Z,16.50
2019-02-08T15:18:38.089Z,16.50
2019-02-08T15:21:26.221Z,16.50
2019-02-08T15:24:14.317Z,16.50
2019-02-08T15:27:02.387Z,16.50
2019-02-08T15:29:50.445Z,16.50
2019-02-08T15:32:38.561Z,16.50
2019-02-08T15:35:26.810Z,16.60
2019-02-08T15:38:14.906Z,16.60
2019-02-08T15:41:02.941Z,16.60
2019-02-08T15:43:51.042Z,16.60
2019-02-08T15:46:39.176Z,16.60
2019-02-08T15:49:27.299Z,16.60
2019-02-08T15:52:08.785Z,16.60
2019-02-08T15:54:49.571Z,16.50
2019-02-08T15:57:32.350Z,16.50
2019-02-08T16:00:12.843Z,16.60
2019-02-08T16:02:54.219Z,16.60
2019-02-08T16:05:35.068Z,16.50
2019-02-08T16:08:16.034Z,16.50
2019-02-08T16:10:55.208Z,16.50
2019-02-08T16:13:43.233Z,16.50
2019-02-08T16:16:31.260Z,16.50
2019-02-08T16:19:19.287Z,16.50
2019-02-08T16:25:16.247Z,16.50
2019-02-08T16:28:04.282Z,16.60
2019-02-08T16:30:52.400Z,16.50
2019-02-08T16:33:40.409Z,16.60
2019-02-08T16:36:28.479Z,16.50
2019-02-08T16:39:16.544Z,16.50
2019-02-08T16:42:04.579Z,16.50
2019-02-08T16:44:52.627Z,16.50
2019-02-08T16:47:33.339Z,16.50
2019-02-08T16:50:14.027Z,16.50
2019-02-08T16:52:55.188Z,16.50
2019-02-08T16:55:35.583Z,16.50
2019-02-08T16:58:16.234Z,16.50
2019-02-08T17:00:56.797Z,16.50
2019-02-08T17:03:37.286Z,16.50
2019-02-08T17:06:18.683Z,16.60
2019-02-08T17:08:59.510Z,16.60
2019-02-08T17:11:41.474Z,16.60
2019-02-08T17:14:22.195Z,16.60
2019-02-08T17:17:02.865Z,16.60
2019-02-08T17:19:43.904Z,16.60
2019-02-08T17:22:24.449Z,16.60
2019-02-08T17:25:05.315Z,16.60
2019-02-08T17:27:46.343Z,16.60
2019-02-08T17:30:27.667Z,16.60
2019-02-08T17:33:08.851Z,16.60
2019-02-08T17:35:49.943Z,16.60
2019-02-08T17:38:30.756Z,16.60
2019-02-08T17:41:11.769Z,16.60
2019-02-08T17:43:53.124Z,16.60
2019-02-08T17:46:33.791Z,16.60
2019-02-08T17:49:14.277Z,16.60
2019-02-08T17:51:54.953Z,16.60
2019-02-08T17:54:35.584Z,16.60
2019-02-08T17:57:16.502Z,16.60
2019-02-08T17:59:56.998Z,16.70
2019-02-08T18:02:37.616Z,16.60
2019-02-08T18:05:18.240Z,16.60
2019-02-08T18:07:58.710Z,16.60
2019-02-08T18:10:39.379Z,16.60
2019-02-08T18:13:20.647Z,16.60
2019-02-08T18:16:01.675Z,16.60
2019-02-08T18:18:42.862Z,16.60
2019-02-08T18:21:23.434Z,16.60
2019-02-08T18:24:04.313Z,16.60
2019-02-08T18:26:47.164Z,16.60
2019-02-08T18:29:28.021Z,16.60
2019-02-08T18:32:10.232Z,16.60
2019-02-08T18:34:51.520Z,16.60
2019-02-08T18:37:32.844Z,16.60
2019-02-08T18:40:13.381Z,16.60
2019-02-08T18:42:54.247Z,16.70
2019-02-08T18:45:34.716Z,16.70
2019-02-08T18:48:15.900Z,16.70
2019-02-08T18:50:56.584Z,16.70
2019-02-08T18:53:37.110Z,16.70
2019-02-08T18:56:18.070Z,16.70
2019-02-08T18:59:01.678Z,16.70
2019-02-08T19:01:42.288Z,16.70
2019-02-08T19:04:23.160Z,16.70
2019-02-08T19:07:04.170Z,16.60
2019-02-08T19:09:44.989Z,16.70
2019-02-08T19:12:25.562Z,16.60
2019-02-08T19:15:06.383Z,16.60
2019-02-08T19:17:46.968Z,16.60
2019-02-08T19:20:28.051Z,16.60
2019-02-08T19:23:08.792Z,16.60
2019-02-08T19:25:51.761Z,16.60
2019-02-08T19:28:32.521Z,16.60
2019-02-08T19:31:13.481Z,16.60
2019-02-08T19:33:54.426Z,16.60
2019-02-08T19:36:35.485Z,16.60
2019-02-08T19:39:16.319Z,16.60
2019-02-08T19:41:57.297Z,16.60
2019-02-08T19:44:38.362Z,16.60
2019-02-08T19:47:18.837Z,16.60
2019-02-08T19:50:00.412Z,16.70
2019-02-08T19:52:41.848Z,16.70
2019-02-08T19:55:22.496Z,16.70
2019-02-08T19:58:03.097Z,16.70
2019-02-08T20:00:43.556Z,16.70
2019-02-08T20:03:24.843Z,16.70
2019-02-08T20:06:06.259Z,16.70
2019-02-08T20:08:47.326Z,16.70
2019-02-08T20:11:28.540Z,16.70
2019-02-08T20:14:09.136Z,16.70
2019-02-08T20:16:50.179Z,16.70
2019-02-08T20:19:30.700Z,16.60
2019-02-08T20:22:11.841Z,16.70
2019-02-08T20:24:52.196Z,16.60
2019-02-08T20:27:33.527Z,16.60
2019-02-08T20:30:13.962Z,16.60
2019-02-08T20:32:54.564Z,16.60
2019-02-08T20:35:35.638Z,16.60
2019-02-08T20:38:16.287Z,16.70
2019-02-08T20:40:57.131Z,16.70
2019-02-08T20:43:38.144Z,16.70
2019-02-08T20:46:18.962Z,16.70
2019-02-08T20:48:59.936Z,16.70
2019-02-08T20:51:40.657Z,16.70
2019-02-08T20:54:21.637Z,16.70
2019-02-08T20:57:02.836Z,16.70
2019-02-08T20:59:44.040Z,16.70
2019-02-08T21:02:24.954Z,16.70
2019-02-08T21:05:05.871Z,16.70
2019-02-08T21:07:46.906Z,16.70
2019-02-08T21:10:27.359Z,16.70
2019-02-08T21:13:08.168Z,16.70
2019-02-08T21:15:49.076Z,16.70
2019-02-08T21:18:30.282Z,16.60
2019-02-08T21:21:11.487Z,16.60
2019-02-08T21:23:54.083Z,16.60
2019-02-08T21:26:35.134Z,16.60
2019-02-08T21:29:15.753Z,16.60
2019-02-08T21:31:56.829Z,16.60
2019-02-08T21:34:37.828Z,16.60
2019-02-08T21:37:19.014Z,16.60
2019-02-08T21:39:59.769Z,16.60
2019-02-08T21:42:40.976Z,16.60
2019-02-08T21:48:23.181Z,16.60
2019-02-08T21:53:48.790Z,16.60
2019-02-08T21:56:29.597Z,16.60
2019-02-08T21:59:10.490Z,16.60
2019-02-08T22:01:51.353Z,16.60
2019-02-08T22:04:32.085Z,16.60
2019-02-08T22:07:12.859Z,16.60
2019-02-08T22:09:53.655Z,16.50
2019-02-08T22:12:34.444Z,16.60
2019-02-08T22:15:15.185Z,16.50
2019-02-08T22:17:56.041Z,16.50
2019-02-08T22:20:37.359Z,16.50
2019-02-08T22:23:18.243Z,16.50
2019-02-08T22:25:59.081Z,16.50
2019-02-08T22:28:39.953Z,16.50
2019-02-08T22:31:21.047Z,16.50
2019-02-08T22:34:01.844Z,16.60
2019-02-08T22:36:42.871Z,16.60
2019-02-08T22:39:23.288Z,16.60
2019-02-08T22:42:03.993Z,16.60
2019-02-08T22:44:44.917Z,16.60
2019-02-08T22:47:26.060Z,16.60
2019-02-08T22:50:07.255Z,16.60
2019-02-08T22:52:48.229Z,16.60
2019-02-08T22:55:29.428Z,16.60
2019-02-08T22:58:10.232Z,16.60
2019-02-08T23:00:51.636Z,16.60
2019-02-08T23:03:32.849Z,16.60
2019-02-08T23:06:13.913Z,16.60
2019-02-08T23:08:55.062Z,16.60
2019-02-08T23:11:35.802Z,16.60
2019-02-08T23:14:16.582Z,16.60
2019-02-08T23:16:57.409Z,16.60
2019-02-08T23:19:38.045Z,16.60
2019-02-08T23:22:20.657Z,16.70
2019-02-08T23:25:01.883Z,16.60
2019-02-08T23:27:42.523Z,16.70
2019-02-08T23:30:23.401Z,16.60
2019-02-08T23:33:04.259Z,16.60
2019-02-08T23:35:45.081Z,16.60
2019-02-08T23:38:25.918Z,16.60
2019-02-08T23:41:05.105Z,16.60
2019-02-08T23:43:53.198Z,16.60
2019-02-08T23:46:41.221Z,16.50
2019-02-08T23:49:29.271Z,16.60
2019-02-08T23:52:17.372Z,16.50
2019-02-08T23:55:05.513Z,16.50
2019-02-08T23:57:44.699Z,16.50
